sensor_id;sensor_type;location;lat;lon;timestamp;P1;durP1;ratioP1;P2;durP2;ratioP2
62580;SDS011;48640;48.770;9.148;2022-12-16T00:01:54;43.65;;;23.92;;
62580;SDS011;48640;48.770;9.148;2022-12-16T00:04:22;46.33;;;23.70;;
62580;SDS011;48640;48.770;9.148;2022-12-16T00:06:49;37.67;;;22.13;;
62580;SDS011;48640;48.770;9.148;2022-12-16T00:09:17;39.57;;;22.67;;
62580;SDS011;48640;48.770;9.148;2022-12-16T00:11:44;42.00;;;24.90;;
62580;SDS011;48640;48.770;9.148;2022-12-16T00:14:11;40.17;;;22.07;;
62580;SDS011;48640;48.770;9.148;2022-12-16T00:16:37;43.70;;;23.70;;
62580;SDS011;48640;48.770;9.148;2022-12-16T00:19:04;44.73;;;24.27;;
62580;SDS011;48640;48.770;9.148;2022-12-16T00:21:31;39.83;;;22.63;;
62580;SDS011;48640;48.770;9.148;2022-12-16T00:23:58;41.97;;;24.83;;
62580;SDS011;48640;48.770;9.148;2022-12-16T00:26:26;39.13;;;21.53;;
62580;SDS011;48640;48.770;9.148;2022-12-16T00:28:55;41.67;;;23.05;;
62580;SDS011;48640;48.770;9.148;2022-12-16T00:31:22;39.00;;;22.37;;
62580;SDS011;48640;48.770;9.148;2022-12-16T00:33:49;39.40;;;22.47;;
62580;SDS011;48640;48.770;9.148;2022-12-16T00:36:17;41.43;;;22.20;;
62580;SDS011;48640;48.770;9.148;2022-12-16T00:38:43;44.43;;;21.27;;
62580;SDS011;48640;48.770;9.148;2022-12-16T00:41:10;38.47;;;22.27;;
62580;SDS011;48640;48.770;9.148;2022-12-16T00:43:38;44.47;;;23.07;;
62580;SDS011;48640;48.770;9.148;2022-12-16T00:46:05;45.17;;;22.67;;
62580;SDS011;48640;48.770;9.148;2022-12-16T00:48:32;42.53;;;22.93;;
62580;SDS011;48640;48.770;9.148;2022-12-16T00:50:59;45.17;;;22.53;;
62580;SDS011;48640;48.770;9.148;2022-12-16T00:53:25;41.30;;;21.77;;
62580;SDS011;48640;48.770;9.148;2022-12-16T00:56:00;41.47;;;23.47;;
62580;SDS011;48640;48.770;9.148;2022-12-16T00:58:30;38.60;;;21.27;;
62580;SDS011;48640;48.770;9.148;2022-12-16T01:00:59;42.30;;;24.13;;
62580;SDS011;48640;48.770;9.148;2022-12-16T01:03:26;45.07;;;24.70;;
62580;SDS011;48640;48.770;9.148;2022-12-16T01:05:53;39.57;;;21.23;;
62580;SDS011;48640;48.770;9.148;2022-12-16T01:08:20;46.73;;;23.47;;
62580;SDS011;48640;48.770;9.148;2022-12-16T01:10:50;44.00;;;22.37;;
62580;SDS011;48640;48.770;9.148;2022-12-16T01:13:18;38.78;;;22.02;;
62580;SDS011;48640;48.770;9.148;2022-12-16T01:15:45;41.13;;;21.50;;
62580;SDS011;48640;48.770;9.148;2022-12-16T01:18:13;36.70;;;20.03;;
62580;SDS011;48640;48.770;9.148;2022-12-16T01:20:40;43.87;;;22.40;;
62580;SDS011;48640;48.770;9.148;2022-12-16T01:23:07;42.13;;;22.63;;
62580;SDS011;48640;48.770;9.148;2022-12-16T01:25:34;37.80;;;21.80;;
62580;SDS011;48640;48.770;9.148;2022-12-16T01:28:00;47.17;;;23.17;;
62580;SDS011;48640;48.770;9.148;2022-12-16T01:30:28;50.17;;;26.13;;
62580;SDS011;48640;48.770;9.148;2022-12-16T01:32:55;44.50;;;24.33;;
62580;SDS011;48640;48.770;9.148;2022-12-16T01:35:23;45.87;;;22.93;;
62580;SDS011;48640;48.770;9.148;2022-12-16T01:37:50;43.47;;;24.77;;
62580;SDS011;48640;48.770;9.148;2022-12-16T01:40:17;41.07;;;23.67;;
62580;SDS011;48640;48.770;9.148;2022-12-16T01:42:46;44.85;;;25.77;;
62580;SDS011;48640;48.770;9.148;2022-12-16T01:45:30;41.60;;;24.40;;
62580;SDS011;48640;48.770;9.148;2022-12-16T01:48:00;43.83;;;23.90;;
62580;SDS011;48640;48.770;9.148;2022-12-16T01:50:33;45.30;;;23.93;;
62580;SDS011;48640;48.770;9.148;2022-12-16T01:53:01;42.33;;;20.83;;
62580;SDS011;48640;48.770;9.148;2022-12-16T01:55:31;39.45;;;21.52;;
62580;SDS011;48640;48.770;9.148;2022-12-16T01:58:01;40.05;;;22.83;;
62580;SDS011;48640;48.770;9.148;2022-12-16T02:00:31;37.53;;;20.83;;
62580;SDS011;48640;48.770;9.148;2022-12-16T02:02:59;40.60;;;20.97;;
62580;SDS011;48640;48.770;9.148;2022-12-16T02:05:27;39.30;;;20.70;;
62580;SDS011;48640;48.770;9.148;2022-12-16T02:07:57;38.00;;;20.53;;
62580;SDS011;48640;48.770;9.148;2022-12-16T02:10:29;44.17;;;23.40;;
62580;SDS011;48640;48.770;9.148;2022-12-16T02:13:06;39.30;;;21.57;;
62580;SDS011;48640;48.770;9.148;2022-12-16T02:15:45;42.40;;;22.63;;
62580;SDS011;48640;48.770;9.148;2022-12-16T02:18:18;39.27;;;21.93;;
62580;SDS011;48640;48.770;9.148;2022-12-16T02:20:58;43.43;;;21.70;;
62580;SDS011;48640;48.770;9.148;2022-12-16T02:23:56;38.13;;;19.57;;
62580;SDS011;48640;48.770;9.148;2022-12-16T02:29:39;32.53;;;18.07;;
62580;SDS011;48640;48.770;9.148;2022-12-16T02:32:22;38.17;;;20.93;;
62580;SDS011;48640;48.770;9.148;2022-12-16T02:34:54;41.57;;;21.50;;
62580;SDS011;48640;48.770;9.148;2022-12-16T02:37:29;38.80;;;20.63;;
62580;SDS011;48640;48.770;9.148;2022-12-16T02:40:03;34.60;;;19.37;;
62580;SDS011;48640;48.770;9.148;2022-12-16T02:42:37;37.67;;;21.37;;
62580;SDS011;48640;48.770;9.148;2022-12-16T02:45:10;40.83;;;20.87;;
62580;SDS011;48640;48.770;9.148;2022-12-16T02:47:43;38.17;;;20.27;;
62580;SDS011;48640;48.770;9.148;2022-12-16T02:50:14;37.53;;;21.03;;
62580;SDS011;48640;48.770;9.148;2022-12-16T02:52:45;40.73;;;21.20;;
62580;SDS011;48640;48.770;9.148;2022-12-16T02:55:12;37.50;;;22.37;;
62580;SDS011;48640;48.770;9.148;2022-12-16T02:57:49;39.50;;;20.30;;
62580;SDS011;48640;48.770;9.148;2022-12-16T03:00:33;35.90;;;20.47;;
62580;SDS011;48640;48.770;9.148;2022-12-16T03:03:08;33.57;;;19.90;;
62580;SDS011;48640;48.770;9.148;2022-12-16T03:05:39;36.93;;;20.57;;
62580;SDS011;48640;48.770;9.148;2022-12-16T03:08:13;38.47;;;19.80;;
62580;SDS011;48640;48.770;9.148;2022-12-16T03:10:45;35.83;;;20.23;;
62580;SDS011;48640;48.770;9.148;2022-12-16T03:13:16;33.07;;;19.27;;
62580;SDS011;48640;48.770;9.148;2022-12-16T03:15:45;32.30;;;18.80;;
62580;SDS011;48640;48.770;9.148;2022-12-16T03:18:16;39.00;;;20.90;;
62580;SDS011;48640;48.770;9.148;2022-12-16T03:20:45;31.10;;;18.73;;
62580;SDS011;48640;48.770;9.148;2022-12-16T03:23:18;37.07;;;20.10;;
62580;SDS011;48640;48.770;9.148;2022-12-16T03:25:49;38.43;;;21.30;;
62580;SDS011;48640;48.770;9.148;2022-12-16T03:28:25;37.13;;;20.83;;
62580;SDS011;48640;48.770;9.148;2022-12-16T03:30:58;37.60;;;22.47;;
62580;SDS011;48640;48.770;9.148;2022-12-16T03:33:32;37.60;;;20.97;;
62580;SDS011;48640;48.770;9.148;2022-12-16T03:36:05;45.90;;;24.47;;
62580;SDS011;48640;48.770;9.148;2022-12-16T03:38:37;39.30;;;20.97;;
62580;SDS011;48640;48.770;9.148;2022-12-16T03:41:06;42.80;;;22.43;;
62580;SDS011;48640;48.770;9.148;2022-12-16T03:43:34;39.30;;;20.73;;
62580;SDS011;48640;48.770;9.148;2022-12-16T03:46:02;35.80;;;20.83;;
62580;SDS011;48640;48.770;9.148;2022-12-16T03:48:33;34.47;;;18.83;;
62580;SDS011;48640;48.770;9.148;2022-12-16T03:51:00;36.50;;;19.57;;
62580;SDS011;48640;48.770;9.148;2022-12-16T03:53:27;33.67;;;18.77;;
62580;SDS011;48640;48.770;9.148;2022-12-16T03:55:54;37.60;;;19.80;;
62580;SDS011;48640;48.770;9.148;2022-12-16T03:58:21;36.60;;;18.40;;
62580;SDS011;48640;48.770;9.148;2022-12-16T04:00:48;34.30;;;20.00;;
62580;SDS011;48640;48.770;9.148;2022-12-16T04:03:15;40.50;;;19.43;;
62580;SDS011;48640;48.770;9.148;2022-12-16T04:05:43;33.10;;;18.00;;
62580;SDS011;48640;48.770;9.148;2022-12-16T04:08:10;32.70;;;20.00;;
62580;SDS011;48640;48.770;9.148;2022-12-16T04:10:37;36.13;;;20.90;;
62580;SDS011;48640;48.770;9.148;2022-12-16T04:13:21;34.00;;;18.60;;
62580;SDS011;48640;48.770;9.148;2022-12-16T04:16:06;33.40;;;18.90;;
62580;SDS011;48640;48.770;9.148;2022-12-16T04:18:51;32.27;;;17.20;;
62580;SDS011;48640;48.770;9.148;2022-12-16T04:21:37;25.10;;;14.43;;
62580;SDS011;48640;48.770;9.148;2022-12-16T04:24:21;33.40;;;18.17;;
62580;SDS011;48640;48.770;9.148;2022-12-16T04:26:52;32.43;;;19.07;;
62580;SDS011;48640;48.770;9.148;2022-12-16T04:29:36;30.10;;;16.20;;
62580;SDS011;48640;48.770;9.148;2022-12-16T04:32:23;26.90;;;15.87;;
62580;SDS011;48640;48.770;9.148;2022-12-16T04:34:50;28.43;;;16.53;;
62580;SDS011;48640;48.770;9.148;2022-12-16T04:37:18;27.33;;;15.23;;
62580;SDS011;48640;48.770;9.148;2022-12-16T04:40:02;29.60;;;17.33;;
62580;SDS011;48640;48.770;9.148;2022-12-16T04:42:46;28.10;;;15.17;;
62580;SDS011;48640;48.770;9.148;2022-12-16T04:45:30;27.70;;;15.70;;
62580;SDS011;48640;48.770;9.148;2022-12-16T04:48:15;29.00;;;17.00;;
62580;SDS011;48640;48.770;9.148;2022-12-16T04:50:59;30.77;;;16.60;;
62580;SDS011;48640;48.770;9.148;2022-12-16T04:53:44;26.37;;;14.23;;
62580;SDS011;48640;48.770;9.148;2022-12-16T04:56:43;31.73;;;16.88;;
62580;SDS011;48640;48.770;9.148;2022-12-16T04:59:27;29.27;;;15.87;;
62580;SDS011;48640;48.770;9.148;2022-12-16T05:02:12;26.27;;;16.10;;
62580;SDS011;48640;48.770;9.148;2022-12-16T05:04:56;32.77;;;16.93;;
62580;SDS011;48640;48.770;9.148;2022-12-16T05:07:40;28.33;;;16.37;;
62580;SDS011;48640;48.770;9.148;2022-12-16T05:10:26;28.33;;;15.13;;
62580;SDS011;48640;48.770;9.148;2022-12-16T05:13:10;29.17;;;15.70;;
62580;SDS011;48640;48.770;9.148;2022-12-16T05:15:54;27.00;;;15.23;;
62580;SDS011;48640;48.770;9.148;2022-12-16T05:18:38;27.70;;;15.37;;
62580;SDS011;48640;48.770;9.148;2022-12-16T05:21:22;29.90;;;15.17;;
62580;SDS011;48640;48.770;9.148;2022-12-16T05:24:06;29.10;;;16.73;;
62580;SDS011;48640;48.770;9.148;2022-12-16T05:26:52;28.40;;;16.30;;
62580;SDS011;48640;48.770;9.148;2022-12-16T05:29:36;30.50;;;16.30;;
62580;SDS011;48640;48.770;9.148;2022-12-16T05:32:20;26.60;;;16.37;;
62580;SDS011;48640;48.770;9.148;2022-12-16T05:35:05;25.63;;;14.20;;
62580;SDS011;48640;48.770;9.148;2022-12-16T05:37:49;24.93;;;13.47;;
62580;SDS011;48640;48.770;9.148;2022-12-16T05:40:33;25.95;;;15.05;;
62580;SDS011;48640;48.770;9.148;2022-12-16T05:43:18;28.53;;;15.40;;
62580;SDS011;48640;48.770;9.148;2022-12-16T05:46:03;29.53;;;15.10;;
62580;SDS011;48640;48.770;9.148;2022-12-16T05:48:47;29.43;;;16.03;;
62580;SDS011;48640;48.770;9.148;2022-12-16T05:51:31;21.10;;;12.90;;
62580;SDS011;48640;48.770;9.148;2022-12-16T05:54:15;26.80;;;13.83;;
62580;SDS011;48640;48.770;9.148;2022-12-16T05:56:59;26.03;;;13.80;;
62580;SDS011;48640;48.770;9.148;2022-12-16T05:59:44;23.77;;;13.10;;
62580;SDS011;48640;48.770;9.148;2022-12-16T06:02:40;23.50;;;13.20;;
62580;SDS011;48640;48.770;9.148;2022-12-16T06:05:29;25.97;;;14.57;;
62580;SDS011;48640;48.770;9.148;2022-12-16T06:08:14;28.53;;;14.87;;
62580;SDS011;48640;48.770;9.148;2022-12-16T06:10:58;24.40;;;13.10;;
62580;SDS011;48640;48.770;9.148;2022-12-16T06:13:42;23.17;;;13.63;;
62580;SDS011;48640;48.770;9.148;2022-12-16T06:16:27;25.13;;;12.47;;
62580;SDS011;48640;48.770;9.148;2022-12-16T06:19:11;31.83;;;17.37;;
62580;SDS011;48640;48.770;9.148;2022-12-16T06:21:55;25.93;;;13.40;;
62580;SDS011;48640;48.770;9.148;2022-12-16T06:24:39;26.43;;;13.53;;
62580;SDS011;48640;48.770;9.148;2022-12-16T06:27:23;22.87;;;13.53;;
62580;SDS011;48640;48.770;9.148;2022-12-16T06:30:08;25.03;;;13.23;;
62580;SDS011;48640;48.770;9.148;2022-12-16T06:32:54;23.53;;;13.90;;
62580;SDS011;48640;48.770;9.148;2022-12-16T06:35:38;25.60;;;13.65;;
62580;SDS011;48640;48.770;9.148;2022-12-16T06:38:22;20.93;;;12.33;;
62580;SDS011;48640;48.770;9.148;2022-12-16T06:41:07;24.47;;;13.33;;
62580;SDS011;48640;48.770;9.148;2022-12-16T06:43:51;24.27;;;13.90;;
62580;SDS011;48640;48.770;9.148;2022-12-16T06:46:35;24.60;;;13.50;;
62580;SDS011;48640;48.770;9.148;2022-12-16T06:49:20;29.07;;;15.17;;
62580;SDS011;48640;48.770;9.148;2022-12-16T06:52:04;22.90;;;13.53;;
62580;SDS011;48640;48.770;9.148;2022-12-16T06:55:03;20.87;;;12.13;;
62580;SDS011;48640;48.770;9.148;2022-12-16T06:57:48;23.83;;;13.73;;
62580;SDS011;48640;48.770;9.148;2022-12-16T07:03:22;23.57;;;12.80;;
62580;SDS011;48640;48.770;9.148;2022-12-16T07:06:08;21.43;;;12.00;;
62580;SDS011;48640;48.770;9.148;2022-12-16T07:08:52;24.40;;;13.10;;
62580;SDS011;48640;48.770;9.148;2022-12-16T07:11:36;23.47;;;13.87;;
62580;SDS011;48640;48.770;9.148;2022-12-16T07:14:16;22.80;;;13.80;;
62580;SDS011;48640;48.770;9.148;2022-12-16T07:17:01;26.58;;;13.20;;
62580;SDS011;48640;48.770;9.148;2022-12-16T07:19:45;24.83;;;13.53;;
62580;SDS011;48640;48.770;9.148;2022-12-16T07:22:30;23.40;;;13.57;;
62580;SDS011;48640;48.770;9.148;2022-12-16T07:25:15;22.73;;;12.37;;
62580;SDS011;48640;48.770;9.148;2022-12-16T07:27:59;24.67;;;12.97;;
62580;SDS011;48640;48.770;9.148;2022-12-16T07:30:43;19.67;;;12.60;;
62580;SDS011;48640;48.770;9.148;2022-12-16T07:33:27;19.57;;;11.17;;
62580;SDS011;48640;48.770;9.148;2022-12-16T07:36:11;23.90;;;13.20;;
62580;SDS011;48640;48.770;9.148;2022-12-16T07:38:56;22.87;;;12.97;;
62580;SDS011;48640;48.770;9.148;2022-12-16T07:41:41;26.17;;;12.67;;
62580;SDS011;48640;48.770;9.148;2022-12-16T07:44:25;26.17;;;14.40;;
62580;SDS011;48640;48.770;9.148;2022-12-16T07:47:11;23.53;;;14.37;;
62580;SDS011;48640;48.770;9.148;2022-12-16T07:49:55;23.00;;;13.83;;
62580;SDS011;48640;48.770;9.148;2022-12-16T07:52:39;22.33;;;12.50;;
62580;SDS011;48640;48.770;9.148;2022-12-16T07:55:25;24.00;;;13.30;;
62580;SDS011;48640;48.770;9.148;2022-12-16T07:58:09;22.70;;;12.80;;
62580;SDS011;48640;48.770;9.148;2022-12-16T08:00:53;19.33;;;10.67;;
62580;SDS011;48640;48.770;9.148;2022-12-16T08:03:37;22.13;;;12.23;;
62580;SDS011;48640;48.770;9.148;2022-12-16T08:06:21;19.10;;;10.80;;
62580;SDS011;48640;48.770;9.148;2022-12-16T08:09:06;19.97;;;11.60;;
62580;SDS011;48640;48.770;9.148;2022-12-16T08:11:51;21.43;;;11.20;;
62580;SDS011;48640;48.770;9.148;2022-12-16T08:14:35;18.73;;;10.17;;
62580;SDS011;48640;48.770;9.148;2022-12-16T08:17:19;18.97;;;11.33;;
62580;SDS011;48640;48.770;9.148;2022-12-16T08:20:04;20.53;;;11.10;;
62580;SDS011;48640;48.770;9.148;2022-12-16T08:22:49;19.83;;;11.03;;
62580;SDS011;48640;48.770;9.148;2022-12-16T08:25:32;21.60;;;10.82;;
62580;SDS011;48640;48.770;9.148;2022-12-16T08:28:18;21.27;;;11.35;;
62580;SDS011;48640;48.770;9.148;2022-12-16T08:31:02;17.90;;;10.57;;
62580;SDS011;48640;48.770;9.148;2022-12-16T08:33:47;19.73;;;10.32;;
62580;SDS011;48640;48.770;9.148;2022-12-16T08:36:31;18.23;;;10.38;;
62580;SDS011;48640;48.770;9.148;2022-12-16T08:39:23;18.55;;;10.75;;
62580;SDS011;48640;48.770;9.148;2022-12-16T08:42:08;20.63;;;10.45;;
62580;SDS011;48640;48.770;9.148;2022-12-16T08:44:53;18.53;;;10.90;;
62580;SDS011;48640;48.770;9.148;2022-12-16T08:47:36;19.60;;;10.40;;
62580;SDS011;48640;48.770;9.148;2022-12-16T08:50:26;19.70;;;10.65;;
62580;SDS011;48640;48.770;9.148;2022-12-16T08:53:11;21.85;;;11.10;;
62580;SDS011;48640;48.770;9.148;2022-12-16T08:55:55;16.90;;;9.30;;
62580;SDS011;48640;48.770;9.148;2022-12-16T08:58:39;16.23;;;9.83;;
62580;SDS011;48640;48.770;9.148;2022-12-16T09:01:24;16.80;;;8.63;;
62580;SDS011;48640;48.770;9.148;2022-12-16T09:04:08;19.93;;;10.07;;
62580;SDS011;48640;48.770;9.148;2022-12-16T09:06:52;15.57;;;9.17;;
62580;SDS011;48640;48.770;9.148;2022-12-16T09:09:36;17.90;;;9.17;;
62580;SDS011;48640;48.770;9.148;2022-12-16T09:12:20;16.23;;;9.07;;
62580;SDS011;48640;48.770;9.148;2022-12-16T09:15:05;17.27;;;9.73;;
62580;SDS011;48640;48.770;9.148;2022-12-16T09:17:57;20.77;;;9.60;;
62580;SDS011;48640;48.770;9.148;2022-12-16T09:20:41;17.80;;;9.40;;
62580;SDS011;48640;48.770;9.148;2022-12-16T09:23:25;16.67;;;8.57;;
62580;SDS011;48640;48.770;9.148;2022-12-16T09:26:09;16.27;;;9.05;;
62580;SDS011;48640;48.770;9.148;2022-12-16T09:28:53;17.47;;;9.33;;
62580;SDS011;48640;48.770;9.148;2022-12-16T09:31:37;15.07;;;9.07;;
62580;SDS011;48640;48.770;9.148;2022-12-16T09:34:23;17.37;;;8.70;;
62580;SDS011;48640;48.770;9.148;2022-12-16T09:37:07;18.10;;;9.80;;
62580;SDS011;48640;48.770;9.148;2022-12-16T09:39:51;14.13;;;7.72;;
62580;SDS011;48640;48.770;9.148;2022-12-16T09:42:38;16.83;;;8.77;;
62580;SDS011;48640;48.770;9.148;2022-12-16T09:45:31;15.13;;;7.90;;
62580;SDS011;48640;48.770;9.148;2022-12-16T09:48:25;18.15;;;8.80;;
62580;SDS011;48640;48.770;9.148;2022-12-16T09:51:18;16.33;;;9.02;;
62580;SDS011;48640;48.770;9.148;2022-12-16T09:54:03;18.85;;;7.88;;
62580;SDS011;48640;48.770;9.148;2022-12-16T09:56:50;16.67;;;9.45;;
62580;SDS011;48640;48.770;9.148;2022-12-16T09:59:36;16.03;;;8.27;;
62580;SDS011;48640;48.770;9.148;2022-12-16T10:02:24;16.30;;;9.90;;
62580;SDS011;48640;48.770;9.148;2022-12-16T10:05:09;13.45;;;7.43;;
62580;SDS011;48640;48.770;9.148;2022-12-16T10:07:59;14.00;;;8.73;;
62580;SDS011;48640;48.770;9.148;2022-12-16T10:10:53;14.27;;;8.30;;
62580;SDS011;48640;48.770;9.148;2022-12-16T10:13:45;15.25;;;8.05;;
62580;SDS011;48640;48.770;9.148;2022-12-16T10:16:36;14.95;;;7.38;;
62580;SDS011;48640;48.770;9.148;2022-12-16T10:19:30;15.93;;;7.22;;
62580;SDS011;48640;48.770;9.148;2022-12-16T10:22:26;13.15;;;7.80;;
62580;SDS011;48640;48.770;9.148;2022-12-16T10:25:18;17.60;;;8.70;;
62580;SDS011;48640;48.770;9.148;2022-12-16T10:28:07;18.00;;;8.95;;
62580;SDS011;48640;48.770;9.148;2022-12-16T10:30:58;17.15;;;9.10;;
62580;SDS011;48640;48.770;9.148;2022-12-16T10:33:44;16.90;;;9.10;;
62580;SDS011;48640;48.770;9.148;2022-12-16T10:36:31;17.40;;;8.88;;
62580;SDS011;48640;48.770;9.148;2022-12-16T10:39:22;15.82;;;9.85;;
62580;SDS011;48640;48.770;9.148;2022-12-16T10:42:14;15.25;;;8.75;;
62580;SDS011;48640;48.770;9.148;2022-12-16T10:45:06;14.38;;;8.05;;
62580;SDS011;48640;48.770;9.148;2022-12-16T10:48:14;16.85;;;8.88;;
62580;SDS011;48640;48.770;9.148;2022-12-16T10:51:04;14.88;;;8.23;;
62580;SDS011;48640;48.770;9.148;2022-12-16T10:53:55;18.67;;;9.60;;
62580;SDS011;48640;48.770;9.148;2022-12-16T10:57:02;15.52;;;9.07;;
62580;SDS011;48640;48.770;9.148;2022-12-16T10:59:53;13.20;;;7.85;;
62580;SDS011;48640;48.770;9.148;2022-12-16T11:02:52;14.95;;;8.27;;
62580;SDS011;48640;48.770;9.148;2022-12-16T11:05:36;13.80;;;7.32;;
62580;SDS011;48640;48.770;9.148;2022-12-16T11:08:22;12.88;;;7.90;;
62580;SDS011;48640;48.770;9.148;2022-12-16T11:14:07;15.55;;;8.57;;
62580;SDS011;48640;48.770;9.148;2022-12-16T11:17:18;14.02;;;7.05;;
62580;SDS011;48640;48.770;9.148;2022-12-16T11:20:10;14.45;;;7.40;;
62580;SDS011;48640;48.770;9.148;2022-12-16T11:23:14;15.48;;;8.07;;
62580;SDS011;48640;48.770;9.148;2022-12-16T11:26:11;14.57;;;7.95;;
62580;SDS011;48640;48.770;9.148;2022-12-16T11:29:04;16.35;;;7.75;;
62580;SDS011;48640;48.770;9.148;2022-12-16T11:31:53;14.02;;;8.13;;
62580;SDS011;48640;48.770;9.148;2022-12-16T11:34:43;12.82;;;7.70;;
62580;SDS011;48640;48.770;9.148;2022-12-16T11:37:32;13.85;;;7.32;;
62580;SDS011;48640;48.770;9.148;2022-12-16T11:40:18;14.52;;;8.82;;
62580;SDS011;48640;48.770;9.148;2022-12-16T11:43:03;12.98;;;6.95;;
62580;SDS011;48640;48.770;9.148;2022-12-16T11:45:48;14.15;;;8.27;;
62580;SDS011;48640;48.770;9.148;2022-12-16T11:48:37;12.80;;;7.18;;
62580;SDS011;48640;48.770;9.148;2022-12-16T11:51:28;14.45;;;7.03;;
62580;SDS011;48640;48.770;9.148;2022-12-16T11:54:16;14.73;;;7.75;;
62580;SDS011;48640;48.770;9.148;2022-12-16T11:57:04;14.30;;;7.47;;
62580;SDS011;48640;48.770;9.148;2022-12-16T12:00:00;12.68;;;7.50;;
62580;SDS011;48640;48.770;9.148;2022-12-16T12:02:47;12.82;;;7.10;;
62580;SDS011;48640;48.770;9.148;2022-12-16T12:05:38;13.40;;;7.22;;
62580;SDS011;48640;48.770;9.148;2022-12-16T12:08:28;13.68;;;8.13;;
62580;SDS011;48640;48.770;9.148;2022-12-16T12:11:20;13.85;;;6.65;;
62580;SDS011;48640;48.770;9.148;2022-12-16T12:14:10;11.07;;;6.22;;
62580;SDS011;48640;48.770;9.148;2022-12-16T12:17:05;15.35;;;8.48;;
62580;SDS011;48640;48.770;9.148;2022-12-16T12:20:03;12.07;;;7.68;;
62580;SDS011;48640;48.770;9.148;2022-12-16T12:23:19;13.10;;;7.10;;
62580;SDS011;48640;48.770;9.148;2022-12-16T12:26:11;13.48;;;7.32;;
62580;SDS011;48640;48.770;9.148;2022-12-16T12:29:03;16.42;;;8.00;;
62580;SDS011;48640;48.770;9.148;2022-12-16T12:31:56;17.50;;;8.82;;
62580;SDS011;48640;48.770;9.148;2022-12-16T12:34:48;15.13;;;8.88;;
62580;SDS011;48640;48.770;9.148;2022-12-16T12:37:39;13.18;;;7.75;;
62580;SDS011;48640;48.770;9.148;2022-12-16T12:40:40;16.45;;;8.70;;
62580;SDS011;48640;48.770;9.148;2022-12-16T12:43:38;16.60;;;8.35;;
62580;SDS011;48640;48.770;9.148;2022-12-16T12:46:37;15.63;;;9.30;;
62580;SDS011;48640;48.770;9.148;2022-12-16T12:49:28;17.90;;;9.23;;
62580;SDS011;48640;48.770;9.148;2022-12-16T12:52:23;16.75;;;9.20;;
62580;SDS011;48640;48.770;9.148;2022-12-16T12:55:32;15.02;;;7.60;;
62580;SDS011;48640;48.770;9.148;2022-12-16T12:58:24;14.80;;;7.68;;
62580;SDS011;48640;48.770;9.148;2022-12-16T13:01:10;13.55;;;7.88;;
62580;SDS011;48640;48.770;9.148;2022-12-16T13:03:57;13.73;;;7.90;;
62580;SDS011;48640;48.770;9.148;2022-12-16T13:06:44;14.88;;;8.10;;
62580;SDS011;48640;48.770;9.148;2022-12-16T13:09:30;16.33;;;9.07;;
62580;SDS011;48640;48.770;9.148;2022-12-16T13:12:20;15.25;;;8.40;;
62580;SDS011;48640;48.770;9.148;2022-12-16T13:15:06;18.05;;;8.02;;
62580;SDS011;48640;48.770;9.148;2022-12-16T13:24:39;14.25;;;8.00;;
62580;SDS011;48640;48.770;9.148;2022-12-16T13:27:29;14.55;;;8.10;;
62580;SDS011;48640;48.770;9.148;2022-12-16T13:30:28;14.90;;;8.80;;
62580;SDS011;48640;48.770;9.148;2022-12-16T13:33:20;19.17;;;9.80;;
62580;SDS011;48640;48.770;9.148;2022-12-16T13:36:09;13.40;;;7.60;;
62580;SDS011;48640;48.770;9.148;2022-12-16T13:38:56;15.68;;;8.93;;
62580;SDS011;48640;48.770;9.148;2022-12-16T13:41:48;19.27;;;9.80;;
62580;SDS011;48640;48.770;9.148;2022-12-16T13:44:52;13.50;;;7.80;;
62580;SDS011;48640;48.770;9.148;2022-12-16T13:50:42;13.82;;;7.80;;
62580;SDS011;48640;48.770;9.148;2022-12-16T13:53:29;14.85;;;7.55;;
62580;SDS011;48640;48.770;9.148;2022-12-16T13:56:17;10.55;;;6.57;;
62580;SDS011;48640;48.770;9.148;2022-12-16T13:59:10;12.90;;;7.65;;
62580;SDS011;48640;48.770;9.148;2022-12-16T14:02:11;14.20;;;8.20;;
62580;SDS011;48640;48.770;9.148;2022-12-16T14:04:58;14.35;;;8.43;;
62580;SDS011;48640;48.770;9.148;2022-12-16T14:07:43;14.50;;;8.40;;
62580;SDS011;48640;48.770;9.148;2022-12-16T14:10:29;15.38;;;8.60;;
62580;SDS011;48640;48.770;9.148;2022-12-16T14:13:17;13.27;;;7.28;;
62580;SDS011;48640;48.770;9.148;2022-12-16T14:16:06;14.07;;;7.80;;
62580;SDS011;48640;48.770;9.148;2022-12-16T14:19:00;13.85;;;7.88;;
62580;SDS011;48640;48.770;9.148;2022-12-16T14:21:55;14.70;;;7.60;;
62580;SDS011;48640;48.770;9.148;2022-12-16T14:24:44;14.70;;;7.65;;
62580;SDS011;48640;48.770;9.148;2022-12-16T14:27:28;14.40;;;7.97;;
62580;SDS011;48640;48.770;9.148;2022-12-16T14:30:18;13.50;;;7.28;;
62580;SDS011;48640;48.770;9.148;2022-12-16T14:33:16;14.50;;;7.67;;
62580;SDS011;48640;48.770;9.148;2022-12-16T14:36:16;15.20;;;7.53;;
62580;SDS011;48640;48.770;9.148;2022-12-16T14:39:02;13.67;;;6.80;;
62580;SDS011;48640;48.770;9.148;2022-12-16T14:41:51;17.02;;;8.88;;
62580;SDS011;48640;48.770;9.148;2022-12-16T14:44:37;13.43;;;7.53;;
62580;SDS011;48640;48.770;9.148;2022-12-16T14:47:21;17.42;;;7.78;;
62580;SDS011;48640;48.770;9.148;2022-12-16T14:50:14;18.92;;;9.15;;
62580;SDS011;48640;48.770;9.148;2022-12-16T14:53:05;14.35;;;8.02;;
62580;SDS011;48640;48.770;9.148;2022-12-16T14:56:08;16.05;;;8.60;;
62580;SDS011;48640;48.770;9.148;2022-12-16T14:59:05;18.20;;;8.75;;
62580;SDS011;48640;48.770;9.148;2022-12-16T15:01:57;24.10;;;11.88;;
62580;SDS011;48640;48.770;9.148;2022-12-16T15:04:53;18.67;;;8.52;;
62580;SDS011;48640;48.770;9.148;2022-12-16T15:07:37;14.02;;;8.55;;
62580;SDS011;48640;48.770;9.148;2022-12-16T15:10:22;13.40;;;8.02;;
62580;SDS011;48640;48.770;9.148;2022-12-16T15:13:12;13.88;;;7.57;;
62580;SDS011;48640;48.770;9.148;2022-12-16T15:15:59;13.20;;;7.53;;
62580;SDS011;48640;48.770;9.148;2022-12-16T15:18:56;10.70;;;6.90;;
62580;SDS011;48640;48.770;9.148;2022-12-16T15:21:42;15.23;;;8.07;;
62580;SDS011;48640;48.770;9.148;2022-12-16T15:24:27;10.82;;;6.13;;
62580;SDS011;48640;48.770;9.148;2022-12-16T15:27:23;13.98;;;7.88;;
62580;SDS011;48640;48.770;9.148;2022-12-16T15:33:22;15.02;;;8.52;;
62580;SDS011;48640;48.770;9.148;2022-12-16T15:36:15;14.43;;;7.90;;
62580;SDS011;48640;48.770;9.148;2022-12-16T15:39:08;15.68;;;7.70;;
62580;SDS011;48640;48.770;9.148;2022-12-16T15:41:53;17.13;;;9.63;;
62580;SDS011;48640;48.770;9.148;2022-12-16T15:44:43;18.48;;;9.48;;
62580;SDS011;48640;48.770;9.148;2022-12-16T15:47:31;14.50;;;8.27;;
62580;SDS011;48640;48.770;9.148;2022-12-16T15:50:17;14.52;;;8.20;;
62580;SDS011;48640;48.770;9.148;2022-12-16T15:53:14;14.73;;;6.82;;
62580;SDS011;48640;48.770;9.148;2022-12-16T15:56:14;13.13;;;7.50;;
62580;SDS011;48640;48.770;9.148;2022-12-16T15:59:12;13.88;;;7.50;;
62580;SDS011;48640;48.770;9.148;2022-12-16T16:01:57;13.10;;;7.35;;
62580;SDS011;48640;48.770;9.148;2022-12-16T16:04:47;14.13;;;6.53;;
62580;SDS011;48640;48.770;9.148;2022-12-16T16:07:31;14.00;;;7.55;;
62580;SDS011;48640;48.770;9.148;2022-12-16T16:10:18;13.15;;;6.95;;
62580;SDS011;48640;48.770;9.148;2022-12-16T16:13:03;13.50;;;7.68;;
62580;SDS011;48640;48.770;9.148;2022-12-16T16:15:48;13.90;;;8.05;;
62580;SDS011;48640;48.770;9.148;2022-12-16T16:18:33;16.27;;;8.88;;
62580;SDS011;48640;48.770;9.148;2022-12-16T16:21:17;16.88;;;8.80;;